Time;durP1;ratioP1;P1;durP2;ratioP2;P2;SDS_P1;SDS_P2;PMS_P1;PMS_P2;Temp;Humidity;BMP_temperature;BMP_pressure;BME280_temperature;BME280_humidity;BME280_pressure;Samples;Min_cycle;Max_cycle;Signal;HPM_P1;HPM_P2
2021/03/16 00:00:09;;;;;;;41.88;27.02;;;230.60;1459.20;;;;;;5091629;28;20016;-66
2021/03/16 00:02:35;;;;;;;36.78;22.25;;;230.70;1459.20;;;;;;5090710;28;20115;-64
2021/03/16 00:05:00;;;;;;;24.52;17.15;;;230.60;1459.20;;;;;;5091421;28;20108;-64
2021/03/16 00:07:26;;;;;;;37.35;23.90;;;230.60;1433.60;;;;;;5091548;28;20103;-65
2021/03/16 00:09:52;;;;;;;27.02;16.48;;;230.60;1433.60;;;;;;5086179;28;20024;-66
2021/03/16 00:12:18;;;;;;;42.90;28.65;;;230.60;1433.60;;;;;;5091544;28;20039;-65
2021/03/16 00:14:44;;;;;;;47.70;30.40;;;230.60;1459.20;;;;;;5091326;28;20031;-66
2021/03/16 00:17:10;;;;;;;50.67;32.55;;;230.60;1433.60;;;;;;5077566;28;20037;-65
2021/03/16 00:19:36;;;;;;;69.60;41.97;;;230.60;1459.20;;;;;;5070985;28;20111;-65
2021/03/16 00:22:02;;;;;;;52.35;33.55;;;230.60;1459.20;;;;;;5086989;28;20128;-65
2021/03/16 00:24:29;;;;;;;50.20;35.05;;;230.50;1433.60;;;;;;5083937;28;20436;-65
2021/03/16 00:26:54;;;;;;;40.25;26.05;;;230.50;1433.60;;;;;;5086899;28;20607;-63
2021/03/16 00:29:20;;;;;;;45.58;32.17;;;230.40;1433.60;;;;;;5068487;28;20046;-65
2021/03/16 00:31:46;;;;;;;53.10;35.40;;;230.50;1433.60;;;;;;5070930;28;20017;-65
2021/03/16 00:34:12;;;;;;;43.67;31.50;;;230.50;1433.60;;;;;;5070876;28;20062;-64
2021/03/16 00:36:38;;;;;;;38.28;28.83;;;230.50;1433.60;;;;;;5072007;28;20119;-63
2021/03/16 00:39:05;;;;;;;27.13;19.60;;;230.50;1433.60;;;;;;5077760;28;20029;-65
2021/03/16 00:41:31;;;;;;;20.20;13.27;;;230.50;1459.20;;;;;;5070691;28;20024;-63
2021/03/16 00:43:57;;;;;;;25.45;17.38;;;230.50;1433.60;;;;;;5079281;28;20055;-65
2021/03/16 00:46:23;;;;;;;24.52;17.15;;;230.50;1433.60;;;;;;5094573;28;20032;-64
2021/03/16 00:48:48;;;;;;;61.35;34.47;;;230.40;1459.20;;;;;;5082136;28;20490;-65
2021/03/16 00:51:14;;;;;;;97.05;48.47;;;230.50;1433.60;;;;;;5089018;28;20052;-64
2021/03/16 00:53:40;;;;;;;33.50;20.20;;;230.50;1433.60;;;;;;5083762;28;20024;-64
2021/03/16 00:56:07;;;;;;;30.30;19.92;;;230.40;1433.60;;;;;;5092895;28;20035;-66
2021/03/16 00:58:33;;;;;;;31.90;21.92;;;230.40;1433.60;;;;;;5093508;28;20054;-65
2021/03/16 01:00:59;;;;;;;29.55;18.42;;;230.40;1433.60;;;;;;5094748;28;20062;-65
2021/03/16 01:03:25;;;;;;;30.75;20.08;;;205.70;1433.60;;;;;;5094909;28;20024;-65
2021/03/16 01:05:55;;;;;;;23.70;17.52;;;230.40;1433.60;;;;;;5091349;28;20470;-64
2021/03/16 01:08:21;;;;;;;60.00;31.88;;;205.70;1433.60;;;;;;5090131;28;20108;-65
2021/03/16 01:10:49;;;;;;;33.58;20.17;;;205.70;1459.20;;;;;;5095041;28;20056;-63
2021/03/16 01:13:16;;;;;;;52.35;30.30;;;230.40;1433.60;;;;;;5094958;28;20028;-65
2021/03/16 01:15:42;;;;;;;22.02;15.10;;;230.50;1408.00;;;;;;5094819;28;20122;-65
2021/03/16 01:18:08;;;;;;;26.88;16.33;;;230.50;1408.00;;;;;;5095080;28;20034;-64
2021/03/16 01:20:34;;;;;;;32.00;19.35;;;230.50;1408.00;;;;;;5094957;28;20020;-65
2021/03/16 01:23:00;;;;;;;29.30;17.13;;;230.40;1433.60;;;;;;5091501;28;20028;-65
2021/03/16 01:25:26;;;;;;;25.00;14.40;;;230.40;1484.80;;;;;;5094622;28;20020;-64
2021/03/16 01:27:54;;;;;;;48.13;28.23;;;230.40;1459.20;;;;;;5094485;28;20355;-65
2021/03/16 01:30:21;;;;;;;28.15;16.90;;;230.40;1433.60;;;;;;5094350;28;20085;-64
2021/03/16 01:32:47;;;;;;;25.35;16.13;;;205.70;1459.20;;;;;;5094496;28;20378;-65
2021/03/16 01:35:15;;;;;;;25.25;14.82;;;205.70;1459.20;;;;;;5094224;28;20028;-64
2021/03/16 01:37:41;;;;;;;28.02;16.60;;;205.70;1459.20;;;;;;5093834;28;20490;-65
2021/03/16 01:40:14;;;;;;;35.60;18.77;;;230.40;1433.60;;;;;;5085049;28;20031;-64
2021/03/16 01:42:40;;;;;;;35.05;20.40;;;230.50;1459.20;;;;;;5080057;28;20044;-64
2021/03/16 01:45:16;;;;;;;42.70;23.55;;;230.50;1433.60;;;;;;5093844;28;20119;-66
2021/03/16 01:47:50;;;;;;;33.78;19.48;;;230.40;1459.20;;;;;;5094027;28;20032;-65
2021/03/16 01:50:20;;;;;;;22.98;14.80;;;230.50;1587.20;;;;;;5066517;28;20374;-65
2021/03/16 01:52:47;;;;;;;27.45;15.77;;;230.40;1638.40;;;;;;5093519;28;20024;-65
2021/03/16 01:55:13;;;;;;;30.27;18.33;;;230.40;1459.20;;;;;;5085672;28;20020;-64
2021/03/16 01:57:41;;;;;;;28.30;17.67;;;230.50;1408.00;;;;;;5082213;28;20024;-69
2021/03/16 02:00:09;;;;;;;29.20;16.40;;;230.40;1433.60;;;;;;5088811;28;20025;-64
2021/03/16 02:02:35;;;;;;;20.13;13.45;;;230.50;1408.00;;;;;;5073624;28;20081;-65
2021/03/16 02:05:04;;;;;;;51.83;32.92;;;230.40;1408.00;;;;;;5073468;28;20021;-66
2021/03/16 02:07:34;;;;;;;30.77;21.77;;;205.70;1433.60;;;;;;5061792;28;20036;-65
2021/03/16 02:10:24;;;;;;;25.23;17.38;;;205.70;1433.60;;;;;;5073273;28;20107;-64
2021/03/16 02:13:04;;;;;;;25.00;15.68;;;205.60;1433.60;;;;;;5063590;28;20040;-61
2021/03/16 02:15:39;;;;;;;17.85;11.68;;;205.60;1433.60;;;;;;5073238;28;20031;-64
2021/03/16 02:18:14;;;;;;;22.17;19.70;;;205.60;1433.60;;;;;;5073845;28;20470;-65
2021/03/16 02:21:05;;;;;;;17.80;13.80;;;205.70;1433.60;;;;;;5073248;28;20168;-64
2021/03/16 02:23:36;;;;;;;19.17;12.63;;;205.70;1433.60;;;;;;5073133;28;20558;-66
2021/03/16 02:26:34;;;;;;;15.15;11.30;;;205.70;1433.60;;;;;;5073093;28;20020;-69
2021/03/16 02:29:19;;;;;;;12.27;8.68;;;205.70;1433.60;;;;;;5072836;28;20378;-66
2021/03/16 02:31:52;;;;;;;12.30;9.20;;;205.50;1408.00;;;;;;5073114;28;20048;-68
2021/03/16 02:34:19;;;;;;;13.45;9.80;;;205.50;1433.60;;;;;;5072690;28;20521;-64
2021/03/16 02:36:46;;;;;;;10.98;8.63;;;205.60;1433.60;;;;;;5072782;28;20040;-66
2021/03/16 02:39:14;;;;;;;13.82;8.95;;;205.50;1433.60;;;;;;5071976;28;20055;-65
2021/03/16 02:41:43;;;;;;;11.90;8.93;;;205.50;1433.60;;;;;;5072516;28;20032;-63
2021/03/16 02:44:09;;;;;;;12.10;8.85;;;205.30;1484.80;;;;;;5084557;28;20036;-66
2021/03/16 02:46:38;;;;;;;13.23;9.52;;;205.60;1459.20;;;;;;5092699;28;20065;-66
2021/03/16 02:49:05;;;;;;;13.57;9.25;;;205.60;1433.60;;;;;;5092919;28;20020;-65
2021/03/16 02:51:31;;;;;;;16.02;10.77;;;205.50;1459.20;;;;;;5092683;28;20016;-65
2021/03/16 02:53:57;;;;;;;14.35;11.65;;;205.50;1459.20;;;;;;5092966;28;20474;-65
2021/03/16 02:56:24;;;;;;;13.02;9.35;;;205.50;1459.20;;;;;;5086221;28;20048;-65
2021/03/16 02:58:53;;;;;;;11.57;9.70;;;205.40;1433.60;;;;;;5092769;28;20020;-66
2021/03/16 03:01:21;;;;;;;12.10;9.13;;;205.40;1459.20;;;;;;5092930;28;20062;-66
2021/03/16 03:03:48;;;;;;;11.48;8.27;;;205.40;1459.20;;;;;;5092582;28;20059;-66
2021/03/16 03:06:17;;;;;;;11.35;9.48;;;205.50;1510.40;;;;;;5091339;28;20056;-65
2021/03/16 03:08:45;;;;;;;11.93;8.30;;;205.50;1408.00;;;;;;5088426;28;20100;-62
2021/03/16 03:11:11;;;;;;;13.50;9.48;;;205.40;1408.00;;;;;;5092891;28;20031;-64
2021/03/16 03:13:37;;;;;;;11.85;8.95;;;205.60;1433.60;;;;;;5089670;28;20023;-64
2021/03/16 03:16:04;;;;;;;11.80;8.38;;;205.50;1433.60;;;;;;5071190;28;20437;-65
2021/03/16 03:18:31;;;;;;;12.65;7.03;;;205.40;1433.60;;;;;;5071835;28;20046;-64
2021/03/16 03:21:03;;;;;;;11.23;7.95;;;205.30;1459.20;;;;;;5072214;28;20360;-65
2021/03/16 03:23:33;;;;;;;11.75;7.72;;;205.40;1459.20;;;;;;5071956;28;20032;-63
2021/03/16 03:26:13;;;;;;;9.45;7.43;;;205.40;1459.20;;;;;;5072174;28;20048;-60
2021/03/16 03:28:40;;;;;;;10.23;7.03;;;205.30;1433.60;;;;;;5071878;28;20115;-64
2021/03/16 03:31:06;;;;;;;12.82;7.90;;;205.20;1433.60;;;;;;5071640;28;20024;-63
2021/03/16 03:33:34;;;;;;;11.10;7.90;;;205.30;1433.60;;;;;;5071915;28;20021;-61
2021/03/16 03:36:02;;;;;;;9.35;7.30;;;205.30;1433.60;;;;;;5071527;28;20029;-62
2021/03/16 03:38:30;;;;;;;9.85;7.57;;;205.20;1459.20;;;;;;5071620;28;20025;-62
2021/03/16 03:40:57;;;;;;;10.77;8.20;;;205.20;1459.20;;;;;;5071644;28;20100;-63
2021/03/16 03:43:24;;;;;;;12.70;9.00;;;205.30;1459.20;;;;;;5077226;28;20062;-63
2021/03/16 03:45:52;;;;;;;12.30;7.50;;;205.20;1459.20;;;;;;5091945;28;20531;-61
2021/03/16 03:48:21;;;;;;;13.05;8.35;;;205.30;1433.60;;;;;;5091797;28;20536;-63
2021/03/16 03:50:51;;;;;;;16.60;9.05;;;205.40;1433.60;;;;;;5091951;28;20028;-61
2021/03/16 03:53:17;;;;;;;12.18;8.15;;;205.40;1433.60;;;;;;5091771;28;20016;-63
2021/03/16 03:55:45;;;;;;;10.60;8.18;;;205.40;1433.60;;;;;;5090438;28;20032;-64
2021/03/16 03:58:11;;;;;;;10.27;7.22;;;205.30;1433.60;;;;;;5087188;28;20035;-62
2021/03/16 04:00:38;;;;;;;12.05;6.80;;;205.20;1433.60;;;;;;5091816;28;20503;-63
2021/03/16 04:03:05;;;;;;;13.02;7.47;;;205.20;1433.60;;;;;;5091913;28;20108;-60
2021/03/16 04:05:31;;;;;;;10.38;7.00;;;205.20;1433.60;;;;;;5091671;28;20174;-60
2021/03/16 04:07:58;;;;;;;12.55;7.10;;;205.20;1433.60;;;;;;5089920;28;20523;-61
2021/03/16 04:10:25;;;;;;;12.65;7.75;;;;;;;;;;5090125;28;20039;-62
2021/03/16 04:12:52;;;;;;;13.18;7.88;;;;;;;;;;5091922;28;20032;-62
2021/03/16 04:15:18;;;;;;;12.18;7.85;;;205.40;1408.00;;;;;;5091565;28;20480;-60
2021/03/16 04:17:45;;;;;;;10.25;7.43;;;205.20;1433.60;;;;;;5091644;28;20439;-63
2021/03/16 04:20:14;;;;;;;11.25;7.15;;;205.20;1433.60;;;;;;5093716;28;20017;-62
2021/03/16 04:22:41;;;;;;;10.63;7.25;;;205.30;1433.60;;;;;;5095870;28;20039;-63
2021/03/16 04:25:08;;;;;;;12.43;9.00;;;205.30;1433.60;;;;;;5095734;28;20449;-60
2021/03/16 04:27:34;;;;;;;12.00;8.60;;;205.30;1459.20;;;;;;5095431;28;20030;-64
2021/03/16 04:29:59;;;;;;;15.18;10.18;;;205.20;1433.60;;;;;;5095809;28;20024;-63
2021/03/16 04:32:25;;;;;;;16.63;10.32;;;205.30;1433.60;;;;;;5095529;28;20031;-63
2021/03/16 04:34:52;;;;;;;20.15;11.75;;;205.20;1459.20;;;;;;5095520;28;20070;-63
2021/03/16 04:37:18;;;;;;;16.45;11.18;;;205.30;1433.60;;;;;;5095353;28;20032;-64
2021/03/16 04:39:44;;;;;;;16.15;12.50;;;205.30;1433.60;;;;;;5086486;28;20055;-63
2021/03/16 04:42:10;;;;;;;14.90;13.20;;;205.20;1459.20;;;;;;5085626;28;20478;-62
2021/03/16 04:44:35;;;;;;;12.77;9.48;;;205.30;1459.20;;;;;;5090451;28;20066;-64
2021/03/16 04:47:02;;;;;;;16.05;10.20;;;205.30;1433.60;;;;;;5094960;28;20051;-63
2021/03/16 04:49:28;;;;;;;13.55;9.95;;;205.30;1459.20;;;;;;5079914;28;20424;-68
2021/03/16 04:51:54;;;;;;;14.85;8.20;;;205.20;1433.60;;;;;;5074750;28;20100;-67
2021/03/16 04:54:19;;;;;;;13.70;8.77;;;205.20;1433.60;;;;;;5074900;28;20028;-68
2021/03/16 04:56:45;;;;;;;12.32;9.18;;;205.20;1433.60;;;;;;5071113;28;20039;-69
2021/03/16 04:59:11;;;;;;;13.48;8.88;;;205.30;1433.60;;;;;;5074586;28;20506;-68
2021/03/16 05:01:36;;;;;;;15.43;8.73;;;205.20;1433.60;;;;;;5074540;28;20111;-67
2021/03/16 05:04:02;;;;;;;12.70;8.80;;;205.10;1459.20;;;;;;5074664;28;20020;-68
2021/03/16 05:06:28;;;;;;;16.48;10.93;;;205.00;1484.80;;;;;;5084071;28;20045;-67
2021/03/16 05:08:55;;;;;;;20.13;12.40;;;205.00;1510.40;;;;;;5074730;28;20382;-65
2021/03/16 05:11:21;;;;;;;16.65;12.43;;;205.00;1484.80;;;;;;5075227;28;20036;-68
2021/03/16 05:13:46;;;;;;;24.00;14.73;;;204.90;1510.40;;;;;;5074075;28;20021;-68
2021/03/16 05:16:12;;;;;;;25.00;16.17;;;204.80;1510.40;;;;;;5074406;28;20033;-68
2021/03/16 05:18:38;;;;;;;40.63;24.60;;;204.90;1484.80;;;;;;5074324;28;20437;-71
2021/03/16 05:21:04;;;;;;;22.55;16.77;;;205.00;1510.40;;;;;;5074395;28;20024;-68
2021/03/16 05:23:29;;;;;;;17.05;13.63;;;205.00;1510.40;;;;;;5074462;28;20020;-70
2021/03/16 05:25:55;;;;;;;18.15;9.75;;;205.10;1510.40;;;;;;5074259;28;20031;-68
2021/03/16 05:28:21;;;;;;;16.60;11.10;;;205.00;1510.40;;;;;;5074416;28;20048;-65
2021/03/16 05:30:47;;;;;;;17.38;12.77;;;205.00;1536.00;;;;;;5072934;28;20008;-64
2021/03/16 05:33:12;;;;;;;18.27;13.90;;;204.90;1536.00;;;;;;5074046;28;20386;-63
2021/03/16 05:35:38;;;;;;;23.90;12.43;;;205.00;1536.00;;;;;;5074234;28;20056;-65
2021/03/16 05:38:04;;;;;;;18.55;12.90;;;204.90;1536.00;;;;;;5073675;28;20362;-64
2021/03/16 05:40:33;;;;;;;23.92;15.07;;;204.90;1561.60;;;;;;5074064;28;20029;-62
2021/03/16 05:42:59;;;;;;;19.83;12.75;;;205.00;1536.00;;;;;;5072779;28;20055;-65
2021/03/16 05:45:26;;;;;;;21.98;14.38;;;204.90;1561.60;;;;;;5094412;28;20421;-62
2021/03/16 05:47:52;;;;;;;20.45;14.48;;;205.00;1536.00;;;;;;5094112;28;20031;-63
2021/03/16 05:50:19;;;;;;;21.95;15.15;;;205.00;1561.60;;;;;;5094362;28;20492;-67
2021/03/16 05:52:46;;;;;;;22.85;14.75;;;205.00;1561.60;;;;;;5094246;28;20136;-64
2021/03/16 05:55:12;;;;;;;20.63;13.45;;;205.10;1561.60;;;;;;5093848;28;20019;-65
2021/03/16 05:57:39;;;;;;;23.65;14.82;;;205.10;1561.60;;;;;;5087618;28;20036;-67
2021/03/16 06:00:06;;;;;;;24.27;14.98;;;205.10;1561.60;;;;;;5093706;28;20470;-66
2021/03/16 06:02:37;;;;;;;21.30;14.15;;;205.10;1587.20;;;;;;5092598;28;20462;-67
2021/03/16 06:05:04;;;;;;;23.33;14.50;;;204.90;1587.20;;;;;;5094098;28;20116;-64
2021/03/16 06:07:30;;;;;;;23.13;14.00;;;205.00;1587.20;;;;;;5094224;28;20032;-67
2021/03/16 06:09:56;;;;;;;30.27;18.20;;;205.10;1587.20;;;;;;5090279;28;20367;-65
2021/03/16 06:12:29;;;;;;;30.75;17.77;;;205.00;1612.80;;;;;;5093589;28;20128;-67
2021/03/16 06:14:55;;;;;;;31.67;18.10;;;205.10;1587.20;;;;;;5093507;28;20523;-67
2021/03/16 06:17:21;;;;;;;28.35;16.92;;;205.10;1612.80;;;;;;5093384;28;20032;-66
2021/03/16 06:19:47;;;;;;;21.42;13.20;;;205.20;1612.80;;;;;;5093457;28;20020;-63
2021/03/16 06:22:18;;;;;;;29.45;18.08;;;205.10;1612.80;;;;;;5093533;28;20107;-68
2021/03/16 06:24:45;;;;;;;26.33;15.43;;;205.20;1587.20;;;;;;5093490;28;20478;-63
2021/03/16 06:27:25;;;;;;;22.83;14.90;;;205.20;1612.80;;;;;;5093360;28;20034;-67
2021/03/16 06:29:51;;;;;;;28.88;17.52;;;205.20;1612.80;;;;;;5093367;28;20096;-67
2021/03/16 06:32:18;;;;;;;27.55;16.67;;;205.30;1612.80;;;;;;5093195;28;20074;-66
2021/03/16 06:34:44;;;;;;;28.50;17.13;;;205.40;1587.20;;;;;;5093197;28;20031;-67
2021/03/16 06:37:10;;;;;;;32.30;18.85;;;205.40;1587.20;;;;;;5092956;28;20040;-63
2021/03/16 06:39:43;;;;;;;21.20;14.30;;;205.50;1587.20;;;;;;5084585;28;20478;-67
2021/03/16 06:42:26;;;;;;;26.17;16.48;;;205.20;1612.80;;;;;;5078579;28;20032;-66
2021/03/16 06:45:07;;;;;;;24.45;16.45;;;205.30;1612.80;;;;;;5090720;28;20052;-65
2021/03/16 06:47:42;;;;;;;33.20;21.08;;;205.20;1612.80;;;;;;5091688;28;20123;-66
2021/03/16 06:50:11;;;;;;;32.00;18.48;;;205.30;1638.40;;;;;;5092697;28;20460;-65
2021/03/16 06:52:37;;;;;;;20.25;13.25;;;205.40;1638.40;;;;;;5092711;28;20398;-64
2021/03/16 06:55:13;;;;;;;22.50;15.60;;;205.50;1638.40;;;;;;5092545;28;20031;-65
2021/03/16 06:57:40;;;;;;;19.23;12.57;;;;;;;;;;5086167;28;20020;-64
2021/03/16 07:00:09;;;;;;;24.90;13.98;;;;;;;;;;5092673;28;20450;-65
2021/03/16 07:02:35;;;;;;;24.77;14.82;;;;;;;;;;5093023;28;20085;-64
2021/03/16 07:05:01;;;;;;;18.65;13.13;;;;;;;;;;5092936;28;20024;-65
2021/03/16 07:07:29;;;;;;;20.92;13.48;;;;;;;;;;5092458;28;20043;-66
2021/03/16 07:10:00;;;;;;;21.08;12.88;;;;;;;;;;5088972;28;20020;-63
2021/03/16 07:12:32;;;;;;;;;;;;;;;;;;5092554;28;20035;-65
2021/03/16 07:14:59;;;;;;;26.95;15.68;;;;;;;;;;5092345;28;19915;-66
2021/03/16 07:17:25;;;;;;;20.17;12.85;;;;;;;;;;5091994;28;20131;-62
2021/03/16 07:19:53;;;;;;;24.35;13.70;;;;;;;;;;5091971;28;20024;-62
2021/03/16 07:22:21;;;;;;;25.60;15.40;;;;;;;;;;5092245;28;20028;-64
2021/03/16 07:24:47;;;;;;;27.40;16.67;;;;;;;;;;5092189;28;20363;-65
2021/03/16 07:27:13;;;;;;;22.02;15.23;;;;;;;;;;5091871;28;20021;-65
2021/03/16 07:29:40;;;;;;;21.08;14.35;;;;;;;;;;5092020;28;20108;-64
2021/03/16 07:32:07;;;;;;;23.13;14.45;;;231.00;1561.60;;;;;;5091775;28;20032;-64
2021/03/16 07:34:34;;;;;;;34.63;19.38;;;230.90;1561.60;;;;;;5091873;28;20020;-65
2021/03/16 07:37:02;;;;;;;31.10;20.02;;;;;;;;;;5091984;28;20040;-65
2021/03/16 07:39:29;;;;;;;25.40;16.15;;;;;;;;;;5083725;28;20571;-66
2021/03/16 07:41:56;;;;;;;21.10;13.85;;;;;;;;;;5084290;28;20048;-61
2021/03/16 07:44:22;;;;;;;22.50;14.18;;;;;;;;;;5085159;28;20068;-60
2021/03/16 07:46:58;;;;;;;25.13;15.77;;;;;;;;;;5091536;28;20020;-62
2021/03/16 07:49:30;;;;;;;20.55;12.82;;;;;;;;;;5091626;28;20054;-63
2021/03/16 07:51:57;;;;;;;25.95;15.55;;;231.20;1510.40;;;;;;5063840;28;20478;-64
2021/03/16 07:54:36;;;;;;;24.23;16.33;;;231.20;1587.20;;;;;;5091150;28;20024;-65
2021/03/16 07:57:03;;;;;;;22.45;13.65;;;231.00;1510.40;;;;;;5085501;28;20055;-62
2021/03/16 07:59:30;;;;;;;40.53;26.05;;;231.00;1510.40;;;;;;5091968;28;20044;-60
2021/03/16 08:01:56;;;;;;;25.52;17.30;;;231.00;1536.00;;;;;;5081645;28;20021;-62
2021/03/16 08:04:36;;;;;;;21.63;14.45;;;231.20;1510.40;;;;;;5071334;28;20028;-61
2021/03/16 08:07:04;;;;;;;26.02;16.58;;;231.20;1536.00;;;;;;5075951;28;20103;-64
2021/03/16 08:09:30;;;;;;;21.35;15.35;;;231.20;1510.40;;;;;;5088475;28;20028;-64
2021/03/16 08:11:56;;;;;;;20.63;12.90;;;231.30;1510.40;;;;;;5091490;28;20020;-64
2021/03/16 08:14:30;;;;;;;24.13;13.93;;;256.10;1510.40;;;;;;5091265;28;20078;-64
2021/03/16 08:16:56;;;;;;;24.08;14.63;;;256.20;1510.40;;;;;;5090921;28;20116;-63
2021/03/16 08:19:34;;;;;;;25.00;14.75;;;256.20;1484.80;;;;;;5091319;28;20069;-63
2021/03/16 08:22:00;;;;;;;28.20;12.68;;;256.20;1510.40;;;;;;5091332;28;20526;-65
2021/03/16 08:24:36;;;;;;;24.52;14.30;;;256.40;1510.40;;;;;;5091532;28;20028;-65
2021/03/16 08:27:07;;;;;;;18.50;13.38;;;256.40;1484.80;;;;;;5091300;28;20051;-65
2021/03/16 08:29:33;;;;;;;25.98;15.90;;;256.40;1484.80;;;;;;5091403;28;20020;-62
2021/03/16 08:31:59;;;;;;;25.77;16.45;;;256.60;1484.80;;;;;;5091206;28;20531;-66
2021/03/16 08:34:28;;;;;;;18.13;11.48;;;256.70;1484.80;;;;;;5091319;28;20035;-63
2021/03/16 08:36:54;;;;;;;21.52;13.75;;;256.80;1459.20;;;;;;5091272;28;20040;-64
2021/03/16 08:39:27;;;;;;;17.17;11.00;;;256.70;1433.60;;;;;;5083241;28;20041;-61
2021/03/16 08:41:54;;;;;;;23.52;14.70;;;256.90;1433.60;;;;;;5082292;28;20020;-61
2021/03/16 08:44:20;;;;;;;22.80;14.73;;;256.70;1459.20;;;;;;5084314;28;20413;-64
2021/03/16 08:46:46;;;;;;;25.92;14.68;;;256.90;1433.60;;;;;;5090893;28;20020;-65
2021/03/16 08:49:23;;;;;;;23.27;12.48;;;256.90;1459.20;;;;;;5091160;28;20531;-62
2021/03/16 08:51:48;;;;;;;25.65;14.80;;;256.90;1408.00;;;;;;5091108;28;20028;-63
2021/03/16 08:54:25;;;;;;;23.30;15.40;;;256.90;1433.60;;;;;;5091146;28;20027;-61
2021/03/16 08:56:52;;;;;;;20.23;12.93;;;281.70;1433.60;;;;;;5085106;28;20032;-63
2021/03/16 08:59:21;;;;;;;21.95;15.35;;;281.60;1433.60;;;;;;5091346;28;20024;-64
2021/03/16 09:01:49;;;;;;;22.23;14.13;;;281.70;1408.00;;;;;;5090842;28;20148;-62
2021/03/16 09:04:15;;;;;;;21.73;14.48;;;281.70;1408.00;;;;;;5090918;28;20030;-65
2021/03/16 09:06:42;;;;;;;35.78;19.50;;;281.90;1408.00;;;;;;5093427;28;20504;-63
2021/03/16 09:09:09;;;;;;;25.05;17.38;;;282.20;1408.00;;;;;;5092059;28;20012;-61
2021/03/16 09:11:57;;;;;;;21.40;12.70;;;282.20;1382.40;;;;;;5094591;28;20020;-61
2021/03/16 09:14:23;;;;;;;23.35;11.80;;;282.30;1382.40;;;;;;5072074;28;20020;-63
2021/03/16 09:16:51;;;;;;;24.55;17.10;;;282.20;1356.80;;;;;;5094233;28;20063;-64
2021/03/16 09:19:19;;;;;;;27.17;17.65;;;307.30;1382.40;;;;;;5094515;28;20453;-62
2021/03/16 09:21:57;;;;;;;30.98;19.58;;;307.60;1356.80;;;;;;5094271;28;20077;-61
2021/03/16 09:24:28;;;;;;;24.02;13.50;;;307.80;1356.80;;;;;;5068634;28;20465;-63
2021/03/16 09:27:07;;;;;;;17.42;11.63;;;307.90;1305.60;;;;;;5094161;28;20054;-60
2021/03/16 09:29:37;;;;;;;19.83;13.85;;;308.10;1280.00;;;;;;5066514;28;20102;-61
2021/03/16 09:32:07;;;;;;;33.10;19.42;;;308.10;1254.40;;;;;;5073787;28;20477;-63
2021/03/16 09:34:36;;;;;;;47.70;29.13;;;333.20;1280.00;;;;;;5074031;28;20459;-63
2021/03/16 09:37:08;;;;;;;36.10;27.92;;;333.70;1228.80;;;;;;5073741;28;20036;-64
2021/03/16 09:39:35;;;;;;;25.95;18.20;;;358.60;1177.60;;;;;;5073624;28;20481;-63
2021/03/16 09:42:03;;;;;;;30.65;18.00;;;384.30;1126.40;;;;;;5072155;28;20103;-64
2021/03/16 09:44:42;;;;;;;26.42;21.20;;;410.10;1075.20;;;;;;5088229;28;20113;-63
2021/03/16 09:47:08;;;;;;;18.70;12.65;;;410.10;1049.60;;;;;;5093676;28;20032;-65
2021/03/16 09:49:40;;;;;;;16.15;11.73;;;409.70;1049.60;;;;;;5093428;28;20024;-67
2021/03/16 09:52:08;;;;;;;;;;;384.60;1049.60;;;;;;5094289;28;20032;-64
2021/03/16 09:54:38;;;;;;;27.20;13.00;;;435.90;947.20;;;;;;5094125;28;19904;-67
2021/03/16 09:57:12;;;;;;;18.20;12.43;;;;;;;;;;5072570;28;20119;-65
2021/03/16 09:59:45;;;;;;;13.70;10.80;;;512.30;793.60;;;;;;5093609;28;20027;-64
2021/03/16 10:02:12;;;;;;;19.35;16.83;;;;;;;;;;5066306;28;20016;-66
2021/03/16 10:04:50;;;;;;;17.20;10.63;;;564.00;716.80;;;;;;5093558;28;20481;-65
2021/03/16 10:07:25;;;;;;;21.92;17.40;;;564.10;716.80;;;;;;5065857;28;20016;-65
2021/03/16 10:09:51;;;;;;;31.95;23.25;;;538.20;742.40;;;;;;5091285;28;20389;-67
2021/03/16 10:12:22;;;;;;;28.92;22.15;;;486.60;844.80;;;;;;5093115;28;20027;-64
2021/03/16 10:14:52;;;;;;;31.63;23.90;;;461.00;921.60;;;;;;5090516;28;20126;-66
2021/03/16 10:17:29;;;;;;;30.08;17.83;;;435.20;947.20;;;;;;5088659;28;20084;-65
2021/03/16 10:20:00;;;;;;;23.55;17.33;;;461.30;896.00;;;;;;5090749;28;20047;-64
2021/03/16 10:22:31;;;;;;;20.80;15.90;;;461.10;870.40;;;;;;5073460;28;20025;-66
2021/03/16 10:25:02;;;;;;;28.07;17.07;;;435.20;947.20;;;;;;5091452;28;20028;-64
2021/03/16 10:27:32;;;;;;;24.67;18.75;;;409.80;972.80;;;;;;5092116;28;20028;-66
2021/03/16 10:30:09;;;;;;;17.48;14.40;;;384.30;1049.60;;;;;;5089614;28;20033;-67
2021/03/16 10:32:38;;;;;;;23.25;18.00;;;359.00;1049.60;;;;;;5090720;28;20160;-66
2021/03/16 10:35:04;;;;;;;37.67;22.15;;;358.70;1075.20;;;;;;5090494;28;20439;-67
2021/03/16 10:37:30;;;;;;;19.77;12.90;;;358.50;1100.80;;;;;;5089071;28;20569;-67
2021/03/16 10:39:59;;;;;;;18.80;13.30;;;358.50;1075.20;;;;;;5089778;28;20027;-66
2021/03/16 10:42:25;;;;;;;28.98;18.30;;;333.70;1126.40;;;;;;5088745;28;20028;-68
2021/03/16 10:44:51;;;;;;;24.05;14.88;;;333.50;1126.40;;;;;;5087978;28;20053;-65
2021/03/16 10:47:17;;;;;;;23.65;15.70;;;333.40;1152.00;;;;;;5082921;28;20020;-63
2021/03/16 10:49:42;;;;;;;30.23;17.40;;;333.70;1177.60;;;;;;5078210;28;20016;-63
2021/03/16 10:52:08;;;;;;;27.98;15.77;;;410.00;998.40;;;;;;5089749;28;20016;-64
2021/03/16 10:54:35;;;;;;;19.58;13.52;;;410.10;998.40;;;;;;5090602;28;20024;-60
2021/03/16 10:57:02;;;;;;;37.38;20.40;;;384.70;972.80;;;;;;5084528;28;20448;-64
2021/03/16 10:59:28;;;;;;;36.72;25.65;;;384.10;1024.00;;;;;;5080844;28;20082;-62
2021/03/16 11:01:54;;;;;;;19.00;13.10;;;359.30;1049.60;;;;;;5072473;28;20024;-62
2021/03/16 11:04:19;;;;;;;30.95;18.58;;;435.20;947.20;;;;;;5072332;28;20024;-65
2021/03/16 11:06:46;;;;;;;26.55;15.55;;;461.50;844.80;;;;;;5072266;28;20108;-62
2021/03/16 11:09:13;;;;;;;17.38;12.85;;;435.90;870.40;;;;;;5072442;28;20021;-62
2021/03/16 11:11:39;;;;;;;19.80;13.98;;;410.40;921.60;;;;;;5071923;28;20016;-63
2021/03/16 11:14:05;;;;;;;17.48;13.70;;;409.80;972.80;;;;;;5071945;28;20032;-66
2021/03/16 11:16:31;;;;;;;29.73;21.48;;;384.60;972.80;;;;;;5072210;28;20052;-63
2021/03/16 11:18:57;;;;;;;28.05;15.13;;;384.30;998.40;;;;;;5075115;28;20028;-61
2021/03/16 11:21:22;;;;;;;25.23;16.50;;;359.20;1024.00;;;;;;5089862;28;20105;-60
2021/03/16 11:23:48;;;;;;;18.45;12.60;;;358.70;1075.20;;;;;;5089333;28;20018;-61
2021/03/16 11:26:14;;;;;;;21.85;13.75;;;358.40;1075.20;;;;;;5089618;28;20432;-62
2021/03/16 11:28:39;;;;;;;21.10;13.10;;;333.60;1126.40;;;;;;5089931;28;20046;-62
2021/03/16 11:31:05;;;;;;;24.80;14.55;;;333.40;1152.00;;;;;;5088396;28;20020;-64
2021/03/16 11:33:31;;;;;;;22.25;14.02;;;333.30;1152.00;;;;;;5088786;28;20031;-63
2021/03/16 11:35:57;;;;;;;23.75;13.82;;;333.20;1203.20;;;;;;5073176;28;20039;-62
2021/03/16 11:38:22;;;;;;;26.25;12.02;;;333.00;1203.20;;;;;;5072865;28;20025;-63
2021/03/16 11:40:49;;;;;;;21.70;15.52;;;308.10;1177.60;;;;;;5084048;28;20024;-66
2021/03/16 11:43:14;;;;;;;21.75;15.70;;;308.00;1203.20;;;;;;5071842;28;20037;-62
2021/03/16 11:45:42;;;;;;;24.77;15.07;;;307.90;1228.80;;;;;;5081032;28;20782;-63
2021/03/16 11:48:09;;;;;;;29.70;16.80;;;307.80;1228.80;;;;;;5071153;28;20039;-62
2021/03/16 11:50:35;;;;;;;28.05;14.32;;;307.60;1254.40;;;;;;5074590;28;20074;-62
2021/03/16 11:53:01;;;;;;;29.10;18.15;;;307.60;1280.00;;;;;;5076840;28;20115;-62
2021/03/16 11:55:27;;;;;;;52.95;30.45;;;307.70;1280.00;;;;;;5081484;28;20127;-62
2021/03/16 11:57:52;;;;;;;56.45;32.08;;;307.70;1305.60;;;;;;5074817;28;20533;-62
2021/03/16 12:00:18;;;;;;;40.30;22.38;;;307.60;1305.60;;;;;;5080382;28;20040;-62
2021/03/16 12:02:44;;;;;;;35.53;21.95;;;307.50;1305.60;;;;;;5076795;28;20127;-64
2021/03/16 12:05:10;;;;;;;39.78;23.58;;;307.40;1305.60;;;;;;5072209;28;20745;-63
2021/03/16 12:07:36;;;;;;;33.45;22.63;;;307.40;1305.60;;;;;;5081706;28;20039;-64
2021/03/16 12:10:03;;;;;;;37.00;25.17;;;307.30;1331.20;;;;;;5071378;28;20020;-65
2021/03/16 12:12:29;;;;;;;88.50;68.90;;;307.40;1331.20;;;;;;5071404;28;20024;-64
2021/03/16 12:14:55;;;;;;;65.85;50.25;;;307.30;1331.20;;;;;;5069889;28;20031;-65